Time;durP1;ratioP1;P1;durP2;ratioP2;P2;SDS_P1;SDS_P2;PMS_P1;PMS_P2;Temp;Humidity;BMP_temperature;BMP_pressure;BME280_temperature;BME280_humidity;BME280_pressure;Samples;Min_cycle;Max_cycle;Signal;HPM_P1;HPM_P2
2021/03/19 00:00:49;;;;;;;;;;;;;;;27.21;24.36;100600.94;5078145;28;800;-31
2021/03/19 00:03:14;;;;;;;;;;;;;;;27.29;24.44;100597.31;5077325;28;1901;-34
2021/03/19 00:05:39;;;;;;;;;;;;;;;26.48;25.06;100596.94;5077716;28;930;-33
2021/03/19 00:08:05;;;;;;;;;;;;;;;26.95;24.60;100593.25;5077893;28;808;-31
2021/03/19 00:10:31;;;;;;;;;;;;;;;26.70;24.92;100593.53;5077409;28;776;-31
2021/03/19 00:12:58;;;;;;;;;;;;;;;26.14;25.67;100585.53;5077799;28;1399;-33
2021/03/19 00:15:23;;;;;;;;;;;;;;;26.71;25.14;100579.84;5077778;28;807;-34
2021/03/19 00:17:49;;;;;;;;;;;;;;;26.89;24.68;100579.47;5077263;28;952;-32
2021/03/19 00:20:14;;;;;;;;;;;;;;;27.17;24.27;100578.03;5077561;28;760;-34
2021/03/19 00:22:40;;;;;;;;;;;;;;;26.97;24.38;100570.47;5077732;28;1968;-31
2021/03/19 00:25:05;;;;;;;;;;;;;;;26.80;24.52;100558.19;5077238;28;557;-33
2021/03/19 00:27:31;;;;;;;;;;;;;;;26.83;24.77;100561.34;5077415;28;740;-32
2021/03/19 00:29:56;;;;;;;;;;;;;;;26.30;25.40;100567.56;5077098;28;878;-30
2021/03/19 00:32:21;;;;;;;;;;;;;;;26.51;25.04;100549.88;5077074;28;1287;-33
2021/03/19 00:34:47;;;;;;;;;;;;;;;27.13;24.41;100558.66;5077105;28;814;-33
2021/03/19 00:37:12;;;;;;;;;;;;;;;27.04;24.51;100564.34;5077446;28;731;-32
2021/03/19 00:39:37;;;;;;;;;;;;;;;27.30;23.96;100560.31;5077196;28;874;-30
2021/03/19 00:42:03;;;;;;;;;;;;;;;26.56;24.80;100558.25;5076869;28;1906;-31
2021/03/19 00:44:28;;;;;;;;;;;;;;;26.61;25.02;100558.53;5077347;28;904;-33
2021/03/19 00:46:54;;;;;;;;;;;;;;;26.48;24.79;100553.78;5076896;28;1002;-32
2021/03/19 00:49:19;;;;;;;;;;;;;;;26.39;25.03;100544.09;5077077;28;741;-30
2021/03/19 00:51:44;;;;;;;;;;;;;;;26.97;24.48;100546.19;5076980;28;835;-29
2021/03/19 00:54:10;;;;;;;;;;;;;;;27.08;24.32;100541.34;5076929;28;807;-32
2021/03/19 00:56:36;;;;;;;;;;;;;;;26.99;23.99;100535.19;5076081;28;890;-29
2021/03/19 00:59:01;;;;;;;;;;;;;;;26.97;24.15;100538.09;5076818;28;776;-33
2021/03/19 01:01:26;;;;;;;;;;;;;;;26.66;24.58;100533.69;5076421;28;1958;-31
2021/03/19 01:03:51;;;;;;;;;;;;;;;26.84;24.57;100535.19;5076401;28;950;-32
2021/03/19 01:06:17;;;;;;;;;;;;;;;26.16;25.35;100531.44;5076672;28;752;-31
2021/03/19 01:08:42;;;;;;;;;;;;;;;26.52;25.12;100529.97;5076700;28;824;-33
2021/03/19 01:11:07;;;;;;;;;;;;;;;26.96;24.40;100540.97;5076475;28;780;-32
2021/03/19 01:13:34;;;;;;;;;;;;;;;26.88;24.70;100544.59;5076428;28;784;-33
2021/03/19 01:15:59;;;;;;;;;;;;;;;27.22;23.94;100534.25;5076595;28;855;-32
2021/03/19 01:18:25;;;;;;;;;;;;;;;26.97;24.13;100537.25;5076431;28;952;-32
2021/03/19 01:20:53;;;;;;;;;;;;;;;27.23;24.05;100531.38;5076476;28;784;-32
2021/03/19 01:23:19;;;;;;;;;;;;;;;26.60;24.61;100535.28;5076614;28;1973;-32
2021/03/19 01:25:44;;;;;;;;;;;;;;;26.40;25.03;100532.28;5076522;28;748;-29
2021/03/19 01:28:09;;;;;;;;;;;;;;;26.79;24.58;100538.47;5076280;28;835;-36
2021/03/19 01:30:35;;;;;;;;;;;;;;;26.81;24.69;100535.59;5076737;28;1256;-34
2021/03/19 01:33:01;;;;;;;;;;;;;;;27.12;24.15;100545.34;5076126;28;975;-35
2021/03/19 01:35:26;;;;;;;;;;;;;;;27.36;23.77;100546.06;5076301;28;512;-41
2021/03/19 01:37:52;;;;;;;;;;;;;;;26.80;24.56;100545.53;5076131;28;886;-34
2021/03/19 01:40:18;;;;;;;;;;;;;;;26.53;24.99;100545.97;5076365;28;759;-33
2021/03/19 01:42:47;;;;;;;;;;;;;;;26.40;25.00;100546.63;5076205;28;1983;-33
2021/03/19 01:45:31;;;;;;;;;;;;;;;26.03;25.68;100541.00;5058506;28;812;-35
2021/03/19 01:48:15;;;;;;;;;;;;;;;26.85;24.69;100537.72;5075920;28;1002;-32
2021/03/19 01:50:59;;;;;;;;;;;;;;;26.96;24.50;100543.69;5076398;28;776;-33
2021/03/19 01:53:42;;;;;;;;;;;;;;;26.90;24.54;100542.53;5076341;28;807;-34
2021/03/19 01:56:26;;;;;;;;;;;;;;;26.21;25.49;100544.41;5075789;28;807;-35
2021/03/19 01:59:10;;;;;;;;;;;;;;;26.89;24.41;100548.97;5076862;28;823;-32
2021/03/19 02:01:54;;;;;;;;;;;;;;;26.82;24.32;100546.19;5075548;28;1902;-33
2021/03/19 02:04:38;;;;;;;;;;;;;;;26.06;25.37;100547.06;5076107;28;807;-29
2021/03/19 02:07:21;;;;;;;;;;;;;;;26.40;25.02;100541.22;5076210;28;776;-32
2021/03/19 02:10:05;;;;;;;;;;;;;;;26.14;25.44;100549.69;5077562;28;748;-32
2021/03/19 02:12:49;;;;;;;;;;;;;;;25.82;25.80;100548.91;5080016;28;872;-30
2021/03/19 02:15:33;;;;;;;;;;;;;;;26.39;25.13;100552.19;5080124;28;825;-32
2021/03/19 02:18:16;;;;;;;;;;;;;;;26.51;25.05;100542.63;5079420;28;1003;-33
2021/03/19 02:21:00;;;;;;;;;;;;;;;26.82;24.40;100558.84;5080063;28;756;-34
2021/03/19 02:23:44;;;;;;;;;;;;;;;26.60;24.62;100545.22;5079899;28;1947;-34
2021/03/19 02:26:28;;;;;;;;;;;;;;;26.81;24.55;100547.19;5079544;28;767;-34
2021/03/19 02:29:11;;;;;;;;;;;;;;;26.47;24.89;100545.88;5079791;28;891;-31
2021/03/19 02:31:46;;;;;;;;;;;;;;;26.51;24.71;100547.16;5079405;28;1197;-30
2021/03/19 02:34:11;;;;;;;;;;;;;;;26.06;25.31;100552.44;5061465;28;1334;-33
2021/03/19 02:36:37;;;;;;;;;;;;;;;26.74;24.34;100552.50;5079701;28;760;-34
2021/03/19 02:39:02;;;;;;;;;;;;;;;27.03;24.17;100555.41;5079402;28;852;-35
2021/03/19 02:41:27;;;;;;;;;;;;;;;27.29;23.73;100556.78;5079441;28;1918;-35
2021/03/19 02:43:52;;;;;;;;;;;;;;;27.02;24.09;100554.59;5079289;28;693;-34
2021/03/19 02:46:18;;;;;;;;;;;;;;;25.85;25.74;100553.94;5078981;28;804;-33
2021/03/19 02:48:43;;;;;;;;;;;;;;;26.17;25.37;100560.91;5079384;28;955;-31
2021/03/19 02:51:08;;;;;;;;;;;;;;;26.30;24.86;100556.78;5079391;28;821;-33
2021/03/19 02:53:34;;;;;;;;;;;;;;;26.61;24.71;100555.84;5078491;28;822;-32
2021/03/19 02:56:03;;;;;;;;;;;;;;;26.92;24.02;100554.00;5078901;28;827;-33
2021/03/19 02:58:28;;;;;;;;;;;;;;;27.07;24.10;100562.13;5078932;28;824;-34
2021/03/19 03:00:53;;;;;;;;;;;;;;;27.06;23.85;100559.63;5078636;28;844;-31
2021/03/19 03:03:19;;;;;;;;;;;;;;;26.57;24.80;100553.69;5079104;28;1969;-35
2021/03/19 03:05:44;;;;;;;;;;;;;;;26.10;25.38;100548.34;5079039;28;760;-34
2021/03/19 03:08:11;;;;;;;;;;;;;;;26.59;24.54;100554.34;5078590;28;907;-34
2021/03/19 03:10:36;;;;;;;;;;;;;;;26.18;25.05;100540.19;5079126;28;882;-34
2021/03/19 03:13:01;;;;;;;;;;;;;;;26.41;24.77;100534.78;5079185;28;771;-30
2021/03/19 03:15:27;;;;;;;;;;;;;;;26.84;24.18;100544.13;5078721;28;755;-34
2021/03/19 03:17:52;;;;;;;;;;;;;;;27.11;24.00;100538.28;5078662;28;935;-32
2021/03/19 03:20:22;;;;;;;;;;;;;;;27.06;24.00;100546.13;5078483;28;839;-33
2021/03/19 03:22:48;;;;;;;;;;;;;;;26.69;24.36;100538.75;5078541;28;1906;-35
2021/03/19 03:25:13;;;;;;;;;;;;;;;26.61;24.54;100539.66;5078501;28;831;-32
2021/03/19 03:27:39;;;;;;;;;;;;;;;26.72;24.29;100534.81;5078610;28;771;-31
2021/03/19 03:30:06;;;;;;;;;;;;;;;26.25;24.76;100529.53;5078335;28;1666;-33
2021/03/19 03:32:31;;;;;;;;;;;;;;;26.49;24.75;100527.66;5087252;28;935;-35
2021/03/19 03:34:56;;;;;;;;;;;;;;;26.70;24.53;100537.72;5098825;28;815;-33
2021/03/19 03:37:22;;;;;;;;;;;;;;;27.03;24.07;100536.50;5098676;28;819;-35
2021/03/19 03:39:47;;;;;;;;;;;;;;;27.08;23.69;100533.25;5098170;28;824;-36
2021/03/19 03:42:12;;;;;;;;;;;;;;;26.05;25.06;100535.41;5080100;28;1890;-31
2021/03/19 03:44:38;;;;;;;;;;;;;;;26.74;24.17;100539.00;5098777;28;791;-34
2021/03/19 03:47:03;;;;;;;;;;;;;;;26.56;24.56;100535.84;5097321;28;931;-35
2021/03/19 03:49:28;;;;;;;;;;;;;;;26.22;24.91;100543.38;5098126;28;807;-33
2021/03/19 03:51:54;;;;;;;;;;;;;;;26.14;25.26;100549.69;5098536;28;784;-31
2021/03/19 03:54:19;;;;;;;;;;;;;;;26.67;24.65;100548.88;5098133;28;832;-35
2021/03/19 03:56:45;;;;;;;;;;;;;;;27.05;24.07;100547.13;5098338;28;748;-31
2021/03/19 03:59:10;;;;;;;;;;;;;;;27.00;24.20;100548.50;5098445;28;764;-32
2021/03/19 04:01:38;;;;;;;;;;;;;;;26.67;24.56;100556.13;5097098;28;1964;-33
2021/03/19 04:04:04;;;;;;;;;;;;;;;25.97;23.80;100554.34;5098135;28;756;-39
2021/03/19 04:06:29;;;;;;;;;;;;;;;23.13;23.28;100549.28;5098146;28;793;-31
2021/03/19 04:08:54;;;;;;;;;;;;;;;22.72;21.59;100549.91;5097739;28;823;-33
2021/03/19 04:11:20;;;;;;;;;;;;;;;22.36;22.06;100548.94;5098663;28;784;-33
2021/03/19 04:13:45;;;;;;;;;;;;;;;23.45;23.91;100544.22;5098389;28;730;-33
2021/03/19 04:16:11;;;;;;;;;;;;;;;25.02;24.08;100544.41;5085958;28;808;-31
2021/03/19 04:18:36;;;;;;;;;;;;;;;25.35;24.07;100546.09;5078378;28;1462;-31
2021/03/19 04:21:07;;;;;;;;;;;;;;;25.90;23.46;100546.16;5097769;28;768;-31
2021/03/19 04:23:32;;;;;;;;;;;;;;;26.06;23.18;100541.66;5097187;28;1968;-31
2021/03/19 04:25:57;;;;;;;;;;;;;;;26.33;22.81;100536.72;5097707;28;859;-32
2021/03/19 04:28:24;;;;;;;;;;;;;;;26.40;22.71;100545.75;5097504;28;816;-31
2021/03/19 04:30:49;;;;;;;;;;;;;;;26.57;22.73;100548.31;5078960;28;1238;-30
2021/03/19 04:33:19;;;;;;;;;;;;;;;26.56;22.76;100546.63;5096063;28;1037;-34
2021/03/19 04:35:45;;;;;;;;;;;;;;;25.64;23.88;100550.03;5097555;28;808;-39
2021/03/19 04:38:12;;;;;;;;;;;;;;;25.82;24.12;100541.66;5097017;28;824;-33
2021/03/19 04:40:39;;;;;;;;;;;;;;;26.30;23.44;100548.69;5079552;28;822;-32
2021/03/19 04:43:04;;;;;;;;;;;;;;;26.37;23.20;100552.38;5097031;28;1909;-31
2021/03/19 04:45:30;;;;;;;;;;;;;;;25.18;25.00;100557.81;5072787;28;856;-34
2021/03/19 04:47:55;;;;;;;;;;;;;;;26.03;21.08;100559.88;5077034;28;1011;-31
2021/03/19 04:50:21;;;;;;;;;;;;;;;25.82;19.24;100556.97;5092198;28;823;-32
2021/03/19 04:52:47;;;;;;;;;;;;;;;18.84;25.36;100548.28;5096766;28;731;-35
2021/03/19 04:55:12;;;;;;;;;;;;;;;17.94;26.54;100541.47;5097227;28;823;-34
2021/03/19 04:57:37;;;;;;;;;;;;;;;20.41;23.64;100535.44;5107540;28;1018;-31
2021/03/19 05:00:04;;;;;;;;;;;;;;;22.78;20.43;100541.22;5116865;28;823;-29
2021/03/19 05:02:30;;;;;;;;;;;;;;;24.27;19.02;100542.69;5107387;28;1909;-34
2021/03/19 05:04:55;;;;;;;;;;;;;;;24.76;18.72;100540.06;5096844;28;792;-36
2021/03/19 05:07:21;;;;;;;;;;;;;;;25.37;19.03;100549.47;5096522;28;791;-36
2021/03/19 05:09:46;;;;;;;;;;;;;;;25.74;19.15;100547.09;5097026;28;823;-36
2021/03/19 05:12:11;;;;;;;;;;;;;;;26.05;19.18;100551.59;5097060;28;807;-31
2021/03/19 05:14:36;;;;;;;;;;;;;;;26.20;19.13;100548.94;5096641;28;815;-32
2021/03/19 05:17:02;;;;;;;;;;;;;;;26.25;19.30;100553.78;5095831;28;1005;-33
2021/03/19 05:19:27;;;;;;;;;;;;;;;26.45;19.07;100551.44;5096350;28;526;-32
2021/03/19 05:21:52;;;;;;;;;;;;;;;26.57;19.23;100551.84;5096427;28;1906;-31
2021/03/19 05:24:18;;;;;;;;;;;;;;;26.57;19.34;100551.00;5097029;28;743;-31
2021/03/19 05:26:43;;;;;;;;;;;;;;;26.46;19.69;100550.41;5096382;28;754;-34
2021/03/19 05:29:09;;;;;;;;;;;;;;;26.72;19.45;100556.41;5096273;28;846;-33
2021/03/19 05:31:34;;;;;;;;;;;;;;;26.65;19.72;100557.16;5095751;28;1308;-31
2021/03/19 05:33:59;;;;;;;;;;;;;;;26.67;19.82;100556.97;5096502;28;800;-30
2021/03/19 05:36:26;;;;;;;;;;;;;;;26.84;19.76;100562.19;5095845;28;851;-41
2021/03/19 05:38:51;;;;;;;;;;;;;;;26.82;19.80;100566.94;5096221;28;587;-32
2021/03/19 05:41:17;;;;;;;;;;;;;;;26.87;20.07;100572.63;5096450;28;1984;-34
2021/03/19 05:43:43;;;;;;;;;;;;;;;27.31;19.72;100567.41;5096049;28;804;-33
2021/03/19 05:46:09;;;;;;;;;;;;;;;27.38;19.76;100571.84;5078600;28;731;-33
2021/03/19 05:48:47;;;;;;;;;;;;;;;27.45;19.83;100568.38;5077571;28;994;-40
2021/03/19 05:51:23;;;;;;;;;;;;;;;27.85;19.42;100579.69;5096266;28;835;-32
2021/03/19 05:53:58;;;;;;;;;;;;;;;27.77;19.73;100578.97;5096180;28;790;-39
2021/03/19 05:56:27;;;;;;;;;;;;;;;27.94;19.59;100582.25;5096580;28;767;-33
2021/03/19 05:58:53;;;;;;;;;;;;;;;27.81;19.84;100588.38;5096257;28;728;-33
2021/03/19 06:01:18;;;;;;;;;;;;;;;28.08;19.71;100592.16;5096135;28;1905;-34
2021/03/19 06:03:45;;;;;;;;;;;;;;;27.58;20.27;100590.16;5095421;28;1006;-39
2021/03/19 06:06:10;;;;;;;;;;;;;;;27.22;20.20;100594.53;5095622;28;804;-36
2021/03/19 06:08:39;;;;;;;;;;;;;;;27.40;20.10;100590.56;5078009;28;945;-33
2021/03/19 06:11:05;;;;;;;;;;;;;;;26.98;20.64;100590.19;5096196;28;839;-39
2021/03/19 06:13:40;;;;;;;;;;;;;;;27.07;20.68;100597.22;5077251;28;1119;-38
2021/03/19 06:16:18;;;;;;;;;;;;;;;27.41;20.59;100602.22;5077965;28;819;-35
2021/03/19 06:18:44;;;;;;;;;;;;;;;27.20;20.94;100601.97;5095609;28;955;-36
2021/03/19 06:21:10;;;;;;;;;;;;;;;27.60;20.50;100596.22;5095649;28;792;-31
2021/03/19 06:23:36;;;;;;;;;;;;;;;27.04;20.69;100600.31;5096027;28;1988;-34
2021/03/19 06:26:01;;;;;;;;;;;;;;;26.76;20.86;100596.31;5095951;28;1004;-34
2021/03/19 06:28:28;;;;;;;;;;;;;;;27.44;20.13;100591.03;5095216;28;523;-31
2021/03/19 06:31:12;;;;;;;;;;;;;;;27.38;20.10;100598.03;5095777;28;1331;-33
2021/03/19 06:33:38;;;;;;;;;;;;;;;26.87;20.69;100600.44;5094949;28;961;-32
2021/03/19 06:36:13;;;;;;;;;;;;;;;26.70;21.07;100590.81;5095528;28;843;-41
2021/03/19 06:38:39;;;;;;;;;;;;;;;27.11;20.66;100600.41;5096101;28;851;-40
2021/03/19 06:41:17;;;;;;;;;;;;;;;27.17;20.58;100604.19;5096088;28;741;-40
2021/03/19 06:43:42;;;;;;;;;;;;;;;27.00;20.87;100602.50;5095496;28;1913;-35
2021/03/19 06:46:10;;;;;;;;;;;;;;;27.30;21.18;100611.63;5095895;28;843;-39
2021/03/19 06:48:58;;;;;;;;;;;;;;;26.98;21.11;100618.03;5076879;28;998;-35
2021/03/19 06:51:24;;;;;;;;;;;;;;;27.52;20.24;100617.94;5087057;28;1111;-36
2021/03/19 06:54:00;;;;;;;;;;;;;;;27.81;20.28;100624.31;5095986;28;906;-32
2021/03/19 06:56:25;;;;;;;;;;;;;;;27.68;20.15;100621.44;5098305;28;771;-40
2021/03/19 06:58:50;;;;;;;;;;;;;;;27.02;19.05;100518.66;5098760;28;846;-36
2021/03/19 07:01:32;;;;;;;;;;;;;;;27.67;19.32;100635.97;5099469;28;739;-42
2021/03/19 07:04:10;;;;;;;;;;;;;;;26.50;20.00;100631.81;5078685;28;820;-36
2021/03/19 07:06:35;;;;;;;;;;;;;;;27.08;19.83;100635.84;5078369;28;886;-31
2021/03/19 07:09:02;;;;;;;;;;;;;;;27.46;19.25;100643.03;5078709;28;815;-29
2021/03/19 07:11:28;;;;;;;;;;;;;;;27.54;19.83;100653.72;5061567;28;761;-29
2021/03/19 07:14:05;;;;;;;;;;;;;;;27.65;19.96;100646.13;5078496;28;998;-33
2021/03/19 07:16:49;;;;;;;;;;;;;;;27.60;19.85;100647.56;5078644;28;998;-36
2021/03/19 07:19:38;;;;;;;;;;;;;;;27.29;20.57;100653.19;5078704;28;841;-32
2021/03/19 07:22:06;;;;;;;;;;;;;;;26.13;21.37;100658.50;5060408;28;1964;-31
2021/03/19 07:24:37;;;;;;;;;;;;;;;26.89;19.31;100660.47;5078819;28;799;-34
2021/03/19 07:27:03;;;;;;;;;;;;;;;27.40;18.76;100658.09;5078347;28;779;-29
2021/03/19 07:29:31;;;;;;;;;;;;;;;27.37;19.05;100659.31;5078245;28;796;-42
2021/03/19 07:31:56;;;;;;;;;;;;;;;27.22;18.71;100658.47;5078153;28;1228;-35
2021/03/19 07:34:37;;;;;;;;;;;;;;;26.99;18.79;100657.50;5078687;28;764;-40
2021/03/19 07:37:08;;;;;;;;;;;;;;;26.61;19.91;100654.84;5078563;28;727;-36
2021/03/19 07:39:37;;;;;;;;;;;;;;;26.40;20.95;100656.34;5078701;28;764;-31
2021/03/19 07:42:02;;;;;;;;;;;;;;;26.23;21.48;100656.44;5059919;28;1910;-33
2021/03/19 07:44:36;;;;;;;;;;;;;;;26.70;21.08;100652.88;5078553;28;839;-37
2021/03/19 07:47:01;;;;;;;;;;;;;;;26.30;21.25;100651.16;5077826;28;1034;-40
2021/03/19 07:49:45;;;;;;;;;;;;;;;26.32;21.44;100650.97;5077609;28;878;-43
2021/03/19 07:52:28;;;;;;;;;;;;;;;26.39;21.30;100644.69;5078464;28;764;-43
2021/03/19 07:55:02;;;;;;;;;;;;;;;26.96;20.98;100644.38;5078156;28;756;-34
2021/03/19 07:57:34;;;;;;;;;;;;;;;26.88;21.15;100652.53;5077530;28;844;-34
2021/03/19 08:00:03;;;;;;;;;;;;;;;26.86;21.21;100654.63;5060209;28;1584;-40
2021/03/19 08:02:37;;;;;;;;;;;;;;;26.92;21.19;100651.16;5059724;28;1906;-42
2021/03/19 08:05:21;;;;;;;;;;;;;;;26.84;21.19;100648.56;5059788;28;861;-41
2021/03/19 08:08:09;;;;;;;;;;;;;;;27.05;21.15;100647.84;5077716;28;800;-31
2021/03/19 08:10:41;;;;;;;;;;;;;;;26.93;21.32;100647.44;5069363;28;1167;-33
2021/03/19 08:13:09;;;;;;;;;;;;;;;27.12;21.06;100653.34;5077420;28;772;-43
2021/03/19 08:15:34;;;;;;;;;;;;;;;26.94;21.28;100649.13;5077675;28;779;-39
2021/03/19 08:18:01;;;;;;;;;;;;;;;26.76;21.56;100652.16;5077411;28;948;-38
2021/03/19 08:20:30;;;;;;;;;;;;;;;26.80;21.41;100650.78;5059045;28;891;-43
2021/03/19 08:23:08;;;;;;;;;;;;;;;27.00;21.30;100653.78;5077350;28;1901;-46
2021/03/19 08:25:38;;;;;;;;;;;;;;;26.93;21.44;100647.44;5077384;28;772;-39
2021/03/19 08:28:13;;;;;;;;;;;;;;;27.12;21.49;100646.09;5059588;28;733;-40
2021/03/19 08:30:47;;;;;;;;;;;;;;;27.17;21.19;100644.69;5076906;28;1150;-32
2021/03/19 08:33:25;;;;;;;;;;;;;;;27.00;21.13;100636.75;5075668;28;1037;-41
2021/03/19 08:36:00;;;;;;;;;;;;;;;26.62;21.98;100641.16;5075437;28;975;-35
2021/03/19 08:38:32;;;;;;;;;;;;;;;27.02;21.52;100643.69;5076795;28;1001;-31
2021/03/19 08:41:00;;;;;;;;;;;;;;;26.80;21.76;100648.06;5077192;28;823;-33
2021/03/19 08:43:30;;;;;;;;;;;;;;;27.14;21.12;100644.03;5076941;28;1979;-38
2021/03/19 08:46:15;;;;;;;;;;;;;;;27.18;21.14;100640.97;5079130;28;864;-35
2021/03/19 08:48:49;;;;;;;;;;;;;;;27.49;20.63;100642.63;5082081;28;1207;-31
2021/03/19 08:51:26;;;;;;;;;;;;;;;26.66;22.11;100638.91;5078762;28;767;-35
2021/03/19 08:54:06;;;;;;;;;;;;;;;26.80;22.00;100639.97;5097167;28;827;-35
2021/03/19 08:56:31;;;;;;;;;;;;;;;27.56;20.99;100634.63;5096960;28;811;-37
2021/03/19 08:58:57;;;;;;;;;;;;;;;27.97;20.30;100639.50;5097047;28;775;-33
2021/03/19 09:01:40;;;;;;;;;;;;;;;27.39;20.94;100635.66;5097000;28;852;-36
2021/03/19 09:04:06;;;;;;;;;;;;;;;27.47;21.10;100640.13;5076380;28;539;-33
2021/03/19 09:06:31;;;;;;;;;;;;;;;27.33;21.22;100643.66;5076527;28;799;-33
2021/03/19 09:08:57;;;;;;;;;;;;;;;27.84;20.46;100645.56;5076501;28;788;-41
2021/03/19 09:11:23;;;;;;;;;;;;;;;28.30;20.12;100632.72;5076284;28;870;-32
2021/03/19 09:14:00;;;;;;;;;;;;;;;27.73;20.44;100646.06;5076492;28;748;-33
2021/03/19 09:16:43;;;;;;;;;;;;;;;27.51;21.07;100659.47;5078876;28;939;-34
2021/03/19 09:19:27;;;;;;;;;;;;;;;27.79;20.51;100658.84;5075452;28;876;-32
2021/03/19 09:21:52;;;;;;;;;;;;;;;28.27;20.15;100657.47;5076432;28;1966;-31
2021/03/19 09:24:22;;;;;;;;;;;;;;;28.09;20.39;100657.91;5076497;28;807;-42
2021/03/19 09:26:48;;;;;;;;;;;;;;;28.36;19.53;100655.50;5075048;28;751;-36
2021/03/19 09:29:14;;;;;;;;;;;;;;;27.66;20.68;100651.34;5076065;28;866;-36
2021/03/19 09:31:45;;;;;;;;;;;;;;;27.65;21.08;100649.69;5076430;28;1091;-31
2021/03/19 09:34:11;;;;;;;;;;;;;;;28.18;20.54;100666.72;5076329;28;759;-34
2021/03/19 09:36:50;;;;;;;;;;;;;;;28.39;20.20;100665.09;5076032;28;875;-47
2021/03/19 09:39:34;;;;;;;;;;;;;;;28.40;19.91;100674.88;5076579;28;812;-33
2021/03/19 09:41:59;;;;;;;;;;;;;;;27.77;20.74;100668.16;5075792;28;1906;-43
2021/03/19 09:44:28;;;;;;;;;;;;;;;27.29;21.45;100669.38;5076399;28;760;-37
2021/03/19 09:46:59;;;;;;;;;;;;;;;27.92;20.58;100665.41;5079289;28;959;-39
2021/03/19 09:49:25;;;;;;;;;;;;;;;28.09;20.27;100661.44;5095951;28;756;-37
2021/03/19 09:51:51;;;;;;;;;;;;;;;28.37;20.10;100657.16;5096454;28;788;-34
2021/03/19 09:54:22;;;;;;;;;;;;;;;28.53;20.03;100661.47;5096374;28;799;-44
2021/03/19 09:56:48;;;;;;;;;;;;;;;28.46;19.80;100657.88;5095885;28;768;-31
2021/03/19 09:59:23;;;;;;;;;;;;;;;27.63;20.63;100654.44;5078107;28;867;-43
2021/03/19 10:01:48;;;;;;;;;;;;;;;27.35;21.11;100653.25;5095519;28;1895;-34
2021/03/19 10:04:26;;;;;;;;;;;;;;;27.12;21.41;100656.91;5095980;28;827;-34
2021/03/19 10:06:51;;;;;;;;;;;;;;;27.17;21.81;100666.28;5096065;28;826;-41
2021/03/19 10:09:21;;;;;;;;;;;;;;;27.84;20.94;100671.78;5096036;28;833;-36
2021/03/19 10:12:09;;;;;;;;;;;;;;;27.78;21.12;100669.84;5096056;28;843;-35
2021/03/19 10:14:36;;;;;;;;;;;;;;;27.70;21.49;100668.06;5087771;28;1141;-35
2021/03/19 10:17:10;;;;;;;;;;;;;;;26.96;22.35;100665.16;5095063;28;918;-37
2021/03/19 10:19:36;;;;;;;;;;;;;;;27.30;21.90;100663.78;5095604;28;1395;-37
2021/03/19 10:22:01;;;;;;;;;;;;;;;27.59;21.74;100664.78;5096223;28;1961;-32
2021/03/19 10:24:27;;;;;;;;;;;;;;;27.77;21.15;100666.28;5095917;28;819;-37
2021/03/19 10:27:03;;;;;;;;;;;;;;;27.57;21.40;100683.06;5095815;28;767;-35
2021/03/19 10:29:29;;;;;;;;;;;;;;;27.53;20.83;100673.66;5096025;28;815;-36
2021/03/19 10:31:55;;;;;;;;;;;;;;;27.23;21.83;100671.78;5076864;28;1320;-34
2021/03/19 10:34:23;;;;;;;;;;;;;;;26.80;22.22;100669.66;5079385;28;769;-33
2021/03/19 10:37:09;;;;;;;;;;;;;;;27.51;21.65;100675.69;5061280;28;689;-41
2021/03/19 10:39:49;;;;;;;;;;;;;;;27.57;21.32;100668.72;5047610;28;1105;-35
2021/03/19 10:42:37;;;;;;;;;;;;;;;27.36;22.12;100678.44;5079518;28;1933;-32
2021/03/19 10:45:14;;;;;;;;;;;;;;;26.96;20.96;100670.53;5078732;28;871;-31
2021/03/19 10:47:45;;;;;;;;;;;;;;;27.09;20.26;100672.63;5079179;28;915;-35
2021/03/19 10:50:14;;;;;;;;;;;;;;;26.81;21.32;100671.34;5079061;28;1330;-32
2021/03/19 10:52:44;;;;;;;;;;;;;;;26.79;21.59;100678.78;5096427;28;776;-34
2021/03/19 10:55:12;;;;;;;;;;;;;;;26.74;22.00;100675.81;5099426;28;783;-35
2021/03/19 10:57:39;;;;;;;;;;;;;;;26.97;20.98;100673.06;5099117;28;796;-34
2021/03/19 11:00:23;;;;;;;;;;;;;;;27.40;20.54;100674.31;5099637;28;751;-36
2021/03/19 11:02:55;;;;;;;;;;;;;;;27.29;21.26;100680.19;5087428;28;1894;-35
2021/03/19 11:05:20;;;;;;;;;;;;;;;27.25;21.17;100677.84;5078545;28;855;-35
2021/03/19 11:07:45;;;;;;;;;;;;;;;26.72;21.81;100669.75;5078763;28;875;-35
2021/03/19 11:10:26;;;;;;;;;;;;;;;26.10;22.63;100669.66;5078459;28;854;-33
2021/03/19 11:12:54;;;;;;;;;;;;;;;27.16;21.67;100668.16;5078715;28;833;-35
2021/03/19 11:15:21;;;;;;;;;;;;;;;27.20;21.34;100676.72;5078825;28;814;-34
2021/03/19 11:17:47;;;;;;;;;;;;;;;26.49;21.79;100657.94;5089306;28;998;-43
2021/03/19 11:20:12;;;;;;;;;;;;;;;26.65;21.30;100669.63;5098770;28;771;-35
2021/03/19 11:22:39;;;;;;;;;;;;;;;26.07;22.22;100672.72;5099005;28;1967;-33
2021/03/19 11:25:08;;;;;;;;;;;;;;;25.76;22.63;100666.28;5098223;28;908;-38
2021/03/19 11:27:33;;;;;;;;;;;;;;;25.06;23.50;100656.06;5099036;28;795;-34
2021/03/19 11:30:09;;;;;;;;;;;;;;;26.15;22.89;100651.09;5099032;28;867;-44
2021/03/19 11:32:35;;;;;;;;;;;;;;;26.72;22.31;100651.69;5098003;28;1026;-41
2021/03/19 11:35:17;;;;;;;;;;;;;;;26.48;20.77;100650.88;5098309;28;814;-35
2021/03/19 11:37:45;;;;;;;;;;;;;;;26.34;18.57;100651.69;5080295;28;1087;-36
2021/03/19 11:40:13;;;;;;;;;;;;;;;26.88;18.37;100648.00;5097840;28;832;-32
2021/03/19 11:42:40;;;;;;;;;;;;;;;26.44;19.76;100635.25;5097875;28;1910;-40
2021/03/19 11:45:10;;;;;;;;;;;;;;;26.31;21.45;100631.25;5098655;28;866;-39
2021/03/19 11:47:39;;;;;;;;;;;;;;;26.38;21.56;100629.56;5097244;28;1006;-39
2021/03/19 11:50:13;;;;;;;;;;;;;;;26.78;20.89;100623.13;5098269;28;796;-37
2021/03/19 11:52:38;;;;;;;;;;;;;;;27.17;20.56;100626.63;5096290;28;1205;-31
2021/03/19 11:55:04;;;;;;;;;;;;;;;26.68;21.41;100631.47;5085289;28;1189;-44
2021/03/19 11:57:29;;;;;;;;;;;;;;;26.49;21.84;100624.75;5082823;28;1043;-32
2021/03/19 11:59:55;;;;;;;;;;;;;;;26.83;21.45;100617.16;5078177;28;1273;-37
2021/03/19 12:02:25;;;;;;;;;;;;;;;26.90;21.50;100612.72;5084492;28;1905;-38
2021/03/19 12:04:50;;;;;;;;;;;;;;;26.81;21.84;100611.16;5098445;28;790;-40
2021/03/19 12:07:15;;;;;;;;;;;;;;;26.85;21.86;100610.59;5098031;28;827;-42
2021/03/19 12:09:40;;;;;;;;;;;;;;;26.92;21.76;100599.03;5097545;28;783;-35
2021/03/19 12:12:10;;;;;;;;;;;;;;;27.30;21.32;100612.47;5097985;28;859;-36
2021/03/19 12:14:35;;;;;;;;;;;;;;;26.76;22.08;100615.22;5079897;28;523;-36
2021/03/19 12:17:01;;;;;;;;;;;;;;;26.89;21.89;100606.47;5092271;28;1245;-43
2021/03/19 12:19:26;;;;;;;;;;;;;;;26.52;22.67;100616.28;5087429;28;1344;-42
2021/03/19 12:21:52;;;;;;;;;;;;;;;27.21;21.62;100609.03;5086284;28;1898;-39
2021/03/19 12:24:17;;;;;;;;;;;;;;;27.40;21.33;100612.19;5091176;28;1221;-34
2021/03/19 12:26:42;;;;;;;;;;;;;;;26.97;22.24;100610.97;5097600;28;807;-42
2021/03/19 12:29:07;;;;;;;;;;;;;;;27.20;21.66;100620.88;5097491;28;1209;-42
2021/03/19 12:31:33;;;;;;;;;;;;;;;27.28;21.75;100613.69;5096057;28;1263;-36
2021/03/19 12:33:58;;;;;;;;;;;;;;;26.77;22.58;100613.38;5097629;28;820;-33
2021/03/19 12:36:24;;;;;;;;;;;;;;;26.85;22.31;100612.44;5097348;28;807;-42
2021/03/19 12:38:49;;;;;;;;;;;;;;;26.85;22.44;100613.28;5096925;28;838;-37
2021/03/19 12:41:14;;;;;;;;;;;;;;;27.34;21.79;100621.84;5097885;28;768;-37
2021/03/19 12:43:40;;;;;;;;;;;;;;;26.79;22.25;100614.03;5097229;28;1978;-34
2021/03/19 12:46:06;;;;;;;;;;;;;;;27.21;21.78;100622.53;5097125;28;859;-35
2021/03/19 12:48:31;;;;;;;;;;;;;;;27.47;21.36;100618.53;5096508;28;970;-43
2021/03/19 12:50:57;;;;;;;;;;;;;;;26.83;22.25;100615.31;5097047;28;791;-35
2021/03/19 12:53:22;;;;;;;;;;;;;;;27.06;22.07;100619.00;5096310;28;824;-33
2021/03/19 12:55:47;;;;;;;;;;;;;;;27.20;22.16;100623.56;5097062;28;779;-37
2021/03/19 12:58:13;;;;;;;;;;;;;;;27.46;21.72;100616.81;5097533;28;760;-34
2021/03/19 13:00:38;;;;;;;;;;;;;;;27.03;22.50;100614.81;5096935;28;776;-34
2021/03/19 13:03:04;;;;;;;;;;;;;;;27.58;21.66;100622.59;5084569;28;1961;-45
2021/03/19 13:05:30;;;;;;;;;;;;;;;27.49;22.23;100619.16;5090973;28;787;-43